Time;durP1;ratioP1;P1;durP2;ratioP2;P2;SDS_P1;SDS_P2;PMS_P1;PMS_P2;Temp;Humidity;BMP_temperature;BMP_pressure;BME280_temperature;BME280_humidity;BME280_pressure;Samples;Min_cycle;Max_cycle;Signal;HPM_P1;HPM_P2
2022/07/19 00:00:27;;;;;;;0.82;0.80;;;23.40;45.80;;;;;;6192013;28;20030;-69
2022/07/19 00:03:28;;;;;;;0.98;0.77;;;23.30;46.50;;;;;;6169081;28;20026;-69
2022/07/19 00:06:29;;;;;;;0.82;0.80;;;23.20;47.00;;;;;;6178032;28;20028;-69
2022/07/19 00:09:30;;;;;;;1.20;0.90;;;23.00;47.50;;;;;;6193154;28;20336;-69
2022/07/19 00:12:30;;;;;;;1.10;0.80;;;23.00;47.70;;;;;;6176539;28;20026;-69
2022/07/19 00:15:31;;;;;;;1.20;0.70;;;22.90;47.80;;;;;;6169085;28;20046;-69
2022/07/19 00:18:32;;;;;;;0.80;0.60;;;22.90;48.00;;;;;;6193066;28;20109;-69
2022/07/19 00:21:32;;;;;;;0.73;0.70;;;22.90;48.40;;;;;;6185725;28;20077;-69
2022/07/19 00:24:33;;;;;;;1.08;0.98;;;22.80;48.50;;;;;;6169044;28;20031;-69
2022/07/19 00:27:34;;;;;;;1.33;0.60;;;22.80;48.80;;;;;;6188230;28;20370;-69
2022/07/19 00:30:35;;;;;;;0.88;0.82;;;22.80;48.90;;;;;;6198012;28;20035;-69
2022/07/19 00:33:35;;;;;;;0.80;0.70;;;22.80;49.20;;;;;;6174818;28;20553;-69
2022/07/19 00:36:36;;;;;;;1.52;1.20;;;22.80;49.20;;;;;;6179167;28;20367;-69
2022/07/19 00:39:36;;;;;;;0.93;0.70;;;22.80;49.30;;;;;;6197877;28;20038;-69
2022/07/19 00:42:38;;;;;;;1.13;0.77;;;22.80;49.40;;;;;;6184229;28;20037;-69
2022/07/19 00:45:39;;;;;;;0.75;0.65;;;22.80;49.60;;;;;;6173574;28;20035;-69
2022/07/19 00:48:41;;;;;;;0.60;0.60;;;22.80;49.60;;;;;;6193792;28;20120;-69
2022/07/19 00:51:42;;;;;;;1.15;0.95;;;22.80;49.80;;;;;;6193161;28;20478;-69
2022/07/19 00:54:44;;;;;;;0.90;0.73;;;22.70;49.70;;;;;;6186627;28;20038;-69
2022/07/19 00:57:45;;;;;;;1.23;0.95;;;22.80;49.90;;;;;;6197023;28;20027;-69
2022/07/19 01:00:46;;;;;;;1.20;0.93;;;22.70;49.90;;;;;;6194509;28;20105;-69
2022/07/19 01:03:47;;;;;;;1.17;0.80;;;22.70;49.90;;;;;;6192627;28;20019;-69
2022/07/19 01:06:48;;;;;;;1.30;0.70;;;22.70;50.00;;;;;;6193445;28;20532;-69
2022/07/19 01:09:49;;;;;;;0.73;0.73;;;22.70;50.10;;;;;;6173088;28;20030;-69
2022/07/19 01:12:50;;;;;;;1.67;1.00;;;22.70;50.10;;;;;;6183333;28;20419;-69
2022/07/19 01:15:51;;;;;;;1.02;0.88;;;22.70;50.10;;;;;;6196477;28;20489;-69
2022/07/19 01:18:51;;;;;;;0.80;0.73;;;22.70;50.20;;;;;;6178480;28;20027;-69
2022/07/19 01:21:52;;;;;;;1.35;1.02;;;22.70;50.30;;;;;;6174275;28;20112;-69
2022/07/19 01:24:53;;;;;;;1.10;0.90;;;22.70;51.00;;;;;;6196280;28;20045;-69
2022/07/19 01:27:53;;;;;;;0.80;0.70;;;22.70;50.30;;;;;;6201554;28;20060;-69
2022/07/19 01:30:54;;;;;;;1.30;1.10;;;22.70;50.30;;;;;;6172403;28;20121;-69
2022/07/19 01:33:55;;;;;;;1.20;0.80;;;22.70;50.30;;;;;;6188484;28;20039;-70
2022/07/19 01:36:55;;;;;;;1.17;0.82;;;22.70;50.30;;;;;;6194978;28;20050;-69
2022/07/19 01:39:58;;;;;;;1.67;1.08;;;22.70;50.30;;;;;;6172146;28;20482;-70
2022/07/19 01:42:58;;;;;;;0.98;0.80;;;22.70;50.40;;;;;;6180054;28;20030;-70
2022/07/19 01:45:59;;;;;;;1.50;0.90;;;22.70;50.40;;;;;;6196328;28;20050;-69
2022/07/19 01:49:00;;;;;;;1.10;0.95;;;22.70;50.40;;;;;;6180055;28;20093;-69
2022/07/19 01:52:00;;;;;;;1.05;0.82;;;22.70;50.40;;;;;;6172138;28;20027;-69
2022/07/19 01:55:02;;;;;;;1.50;0.75;;;22.60;50.40;;;;;;6194269;28;20138;-69
2022/07/19 01:58:03;;;;;;;1.25;0.98;;;22.60;50.40;;;;;;6195818;28;20102;-69
2022/07/19 02:01:04;;;;;;;1.10;0.90;;;22.60;50.50;;;;;;6195856;28;20109;-69
2022/07/19 02:04:05;;;;;;;1.75;0.90;;;22.60;50.50;;;;;;6195548;28;20078;-69
2022/07/19 02:07:05;;;;;;;1.02;0.90;;;22.70;50.60;;;;;;6195420;28;20509;-69
2022/07/19 02:10:07;;;;;;;1.85;1.00;;;22.60;50.60;;;;;;6173641;28;20040;-69
2022/07/19 02:13:08;;;;;;;1.17;0.93;;;22.60;50.60;;;;;;6176827;28;20117;-69
2022/07/19 02:16:08;;;;;;;1.27;1.10;;;22.60;50.60;;;;;;6195026;28;20512;-69
2022/07/19 02:19:10;;;;;;;1.38;1.10;;;22.60;50.60;;;;;;6183003;28;20033;-69
2022/07/19 02:22:10;;;;;;;1.10;0.80;;;22.60;50.60;;;;;;6171289;28;20502;-69
2022/07/19 02:25:11;;;;;;;1.00;0.90;;;22.60;50.70;;;;;;6191219;28;20076;-69
2022/07/19 02:28:12;;;;;;;1.33;1.08;;;22.60;50.70;;;;;;6194961;28;20096;-69
2022/07/19 02:31:12;;;;;;;1.25;1.00;;;22.60;50.70;;;;;;6185606;28;20019;-70
2022/07/19 02:34:13;;;;;;;1.52;1.00;;;22.60;50.70;;;;;;6182099;28;20138;-69
2022/07/19 02:37:14;;;;;;;1.10;1.00;;;22.60;50.70;;;;;;6195098;28;20022;-69
2022/07/19 02:40:14;;;;;;;1.38;0.90;;;22.60;50.80;;;;;;6175799;28;20445;-69
2022/07/19 02:43:15;;;;;;;1.48;1.05;;;22.60;50.80;;;;;;6173099;28;20114;-69
2022/07/19 02:46:16;;;;;;;1.75;0.88;;;22.60;50.90;;;;;;6194928;28;20015;-69
2022/07/19 02:49:17;;;;;;;1.55;1.00;;;22.60;50.80;;;;;;6184111;28;20058;-69
2022/07/19 02:52:18;;;;;;;1.15;1.00;;;22.60;50.90;;;;;;6170725;28;20485;-69
2022/07/19 02:55:18;;;;;;;1.42;1.05;;;22.60;51.00;;;;;;6187894;28;20038;-69
2022/07/19 02:58:19;;;;;;;1.30;1.02;;;22.60;51.00;;;;;;6193059;28;20030;-69
2022/07/19 03:01:20;;;;;;;1.13;1.00;;;22.60;51.00;;;;;;6170302;28;20490;-69
2022/07/19 03:04:21;;;;;;;1.17;1.08;;;22.60;51.10;;;;;;6177983;28;20072;-69
2022/07/19 03:07:21;;;;;;;1.35;0.98;;;22.60;51.10;;;;;;6194400;28;20026;-69
2022/07/19 03:10:22;;;;;;;1.42;1.10;;;22.60;51.20;;;;;;6177894;28;20027;-69
2022/07/19 03:13:22;;;;;;;1.23;0.90;;;22.60;51.20;;;;;;6170378;28;20414;-69
2022/07/19 03:16:23;;;;;;;1.17;1.00;;;22.60;51.20;;;;;;6193250;28;20050;-69
2022/07/19 03:19:27;;;;;;;1.60;1.08;;;22.60;51.20;;;;;;6187262;28;20486;-68
2022/07/19 03:22:27;;;;;;;1.25;1.00;;;22.60;51.20;;;;;;6169782;28;20026;-69
2022/07/19 03:25:28;;;;;;;1.25;0.93;;;22.50;51.20;;;;;;6184253;28;20022;-69
2022/07/19 03:28:29;;;;;;;1.00;0.90;;;22.60;51.30;;;;;;6193663;28;20033;-69
2022/07/19 03:31:29;;;;;;;1.20;1.10;;;22.60;51.30;;;;;;6171492;28;20375;-69
2022/07/19 03:34:30;;;;;;;1.70;1.27;;;22.50;51.20;;;;;;6175038;28;20026;-69
2022/07/19 03:37:30;;;;;;;1.42;1.13;;;22.60;51.40;;;;;;6193628;28;20026;-69
2022/07/19 03:40:31;;;;;;;1.30;1.17;;;22.60;51.40;;;;;;6180431;28;20126;-69
2022/07/19 03:43:32;;;;;;;1.33;0.90;;;22.60;52.10;;;;;;6169207;28;20505;-69
2022/07/19 03:46:32;;;;;;;1.00;0.90;;;22.60;51.40;;;;;;6190158;28;20070;-69
2022/07/19 03:49:33;;;;;;;1.38;1.10;;;22.60;51.50;;;;;;6189161;28;20050;-69
2022/07/19 03:52:34;;;;;;;1.63;1.20;;;22.60;51.40;;;;;;6169884;28;20039;-69
2022/07/19 03:55:34;;;;;;;1.60;1.05;;;22.60;51.50;;;;;;6188931;28;20044;-69
2022/07/19 03:58:35;;;;;;;1.33;1.08;;;22.50;51.40;;;;;;6193146;28;20093;-69
2022/07/19 04:01:37;;;;;;;1.38;1.05;;;22.50;51.50;;;;;;6180611;28;20035;-69
2022/07/19 04:04:38;;;;;;;1.33;1.20;;;22.50;51.50;;;;;;6179432;28;20026;-69
2022/07/19 04:07:38;;;;;;;1.20;1.10;;;22.50;51.50;;;;;;6201331;28;20061;-69
2022/07/19 04:10:40;;;;;;;1.70;1.10;;;22.50;51.50;;;;;;6190912;28;20027;-69
2022/07/19 04:13:40;;;;;;;1.40;1.10;;;22.50;50.40;;;;;;6191926;28;20034;-69
2022/07/19 04:16:41;;;;;;;1.10;1.00;;;22.60;49.70;;;;;;6194678;28;20097;-69
2022/07/19 04:19:42;;;;;;;1.27;1.17;;;22.80;49.30;;;;;;6199880;28;20445;-69
2022/07/19 04:22:42;;;;;;;1.13;0.90;;;22.90;48.90;;;;;;6177868;28;20027;-69
2022/07/19 04:25:43;;;;;;;1.40;1.20;;;22.90;48.40;;;;;;6185515;28;20057;-69
2022/07/19 04:28:44;;;;;;;1.50;1.20;;;23.00;48.10;;;;;;6201564;28;20030;-68
2022/07/19 04:31:44;;;;;;;1.60;0.98;;;23.10;47.90;;;;;;6184390;28;20401;-69
2022/07/19 04:34:45;;;;;;;1.42;1.17;;;23.20;47.60;;;;;;6176876;28;20130;-69
2022/07/19 04:37:45;;;;;;;1.17;1.02;;;23.20;47.60;;;;;;6200436;28;20026;-69
2022/07/19 04:40:46;;;;;;;1.30;1.20;;;23.30;47.30;;;;;;6193646;28;20026;-69
2022/07/19 04:43:47;;;;;;;2.13;1.30;;;23.30;47.20;;;;;;6176629;28;20030;-69
2022/07/19 04:46:48;;;;;;;2.25;1.10;;;23.30;47.20;;;;;;6191445;28;20469;-69
2022/07/19 04:49:48;;;;;;;1.98;1.10;;;23.30;47.10;;;;;;6200353;28;20124;-69
2022/07/19 04:52:49;;;;;;;1.40;1.15;;;23.30;47.70;;;;;;6178724;28;20031;-69
2022/07/19 04:55:50;;;;;;;1.40;1.20;;;23.30;46.90;;;;;;6197852;28;20389;-69
2022/07/19 04:58:50;;;;;;;1.60;1.30;;;23.30;46.90;;;;;;6201414;28;20464;-69
2022/07/19 05:01:51;;;;;;;1.85;1.25;;;23.20;47.50;;;;;;6196046;28;20490;-69
2022/07/19 05:04:51;;;;;;;1.10;1.00;;;23.00;48.00;;;;;;6200468;28;20105;-69
2022/07/19 05:07:52;;;;;;;1.35;1.10;;;22.90;48.30;;;;;;6201004;28;20023;-69
2022/07/19 05:10:53;;;;;;;1.60;1.10;;;22.90;48.80;;;;;;6200170;28;20018;-69
2022/07/19 05:13:53;;;;;;;1.42;1.08;;;22.80;48.90;;;;;;6195700;28;20023;-69
2022/07/19 05:16:54;;;;;;;1.25;1.00;;;22.80;49.70;;;;;;6185727;28;20182;-69
2022/07/19 05:19:54;;;;;;;1.10;0.88;;;22.70;49.90;;;;;;6185665;28;20092;-69
2022/07/19 05:22:55;;;;;;;1.55;1.15;;;22.70;50.20;;;;;;6195742;28;20038;-69
2022/07/19 05:25:56;;;;;;;1.40;1.20;;;22.70;50.30;;;;;;6189454;28;20057;-69
2022/07/19 05:28:56;;;;;;;1.17;1.00;;;22.70;50.60;;;;;;6196521;28;20022;-69
2022/07/19 05:31:57;;;;;;;2.22;1.30;;;22.70;50.70;;;;;;6184782;28;20037;-69
2022/07/19 05:34:58;;;;;;;1.13;1.02;;;22.60;50.70;;;;;;6179263;28;20606;-69
2022/07/19 05:37:58;;;;;;;2.38;1.05;;;22.60;50.40;;;;;;6194728;28;20049;-69
2022/07/19 05:41:00;;;;;;;1.30;1.10;;;22.60;50.20;;;;;;6194243;28;20030;-69
2022/07/19 05:44:00;;;;;;;1.85;1.33;;;22.60;50.50;;;;;;6193536;28;20025;-69
2022/07/19 05:47:01;;;;;;;2.15;1.08;;;22.60;50.70;;;;;;6185534;28;20030;-69
2022/07/19 05:50:02;;;;;;;1.80;1.10;;;22.70;50.60;;;;;;6170866;28;20051;-69
2022/07/19 05:53:03;;;;;;;4.90;1.15;;;22.70;50.70;;;;;;6187646;28;20069;-69
2022/07/19 05:56:04;;;;;;;2.50;1.00;;;22.70;50.60;;;;;;6194761;28;20486;-69
2022/07/19 05:59:05;;;;;;;1.23;1.10;;;22.70;50.60;;;;;;6173701;28;20062;-69
2022/07/19 06:02:06;;;;;;;1.45;1.27;;;22.60;50.50;;;;;;6186405;28;20023;-69
2022/07/19 06:05:07;;;;;;;1.33;1.13;;;22.60;51.20;;;;;;6163341;28;20035;-69
2022/07/19 06:08:08;;;;;;;1.23;1.13;;;22.60;50.60;;;;;;6188409;28;20029;-69
2022/07/19 06:11:09;;;;;;;4.82;0.90;;;22.70;50.90;;;;;;6179403;28;20030;-69
2022/07/19 06:14:11;;;;;;;1.23;1.02;;;22.70;51.00;;;;;;6198360;28;20068;-69
2022/07/19 06:17:12;;;;;;;5.47;1.50;;;22.70;51.00;;;;;;6198448;28;20428;-69
2022/07/19 06:20:13;;;;;;;1.52;1.30;;;22.70;50.90;;;;;;6198062;28;20030;-69
2022/07/19 06:23:14;;;;;;;1.92;1.30;;;22.70;50.90;;;;;;6185108;28;20097;-69
2022/07/19 06:26:14;;;;;;;1.77;1.10;;;22.70;50.70;;;;;;6173904;28;20511;-69
2022/07/19 06:29:15;;;;;;;2.30;1.50;;;22.70;50.80;;;;;;6194803;28;20389;-69
2022/07/19 06:32:16;;;;;;;1.55;1.10;;;22.70;50.70;;;;;;6193429;28;20022;-69
2022/07/19 06:35:16;;;;;;;1.48;1.15;;;22.70;50.80;;;;;;6173860;28;20081;-69
2022/07/19 06:38:17;;;;;;;2.30;1.35;;;22.70;50.80;;;;;;6185389;28;20018;-69
2022/07/19 06:41:18;;;;;;;1.40;1.30;;;22.60;50.80;;;;;;6198146;28;20034;-69
2022/07/19 06:44:18;;;;;;;1.80;1.20;;;22.60;50.80;;;;;;6178764;28;20023;-69
2022/07/19 06:47:19;;;;;;;2.45;1.33;;;22.60;51.00;;;;;;6176677;28;20023;-69
2022/07/19 06:50:21;;;;;;;2.88;1.40;;;22.60;51.10;;;;;;6197653;28;20059;-69
2022/07/19 06:53:22;;;;;;;1.67;1.20;;;22.60;51.20;;;;;;6189613;28;20061;-69
2022/07/19 06:56:22;;;;;;;1.65;1.30;;;22.60;51.20;;;;;;6197378;28;20035;-69
2022/07/19 06:59:23;;;;;;;1.40;1.10;;;22.60;51.20;;;;;;6197548;28;20026;-69
2022/07/19 07:02:24;;;;;;;2.47;1.35;;;22.60;51.20;;;;;;6196216;28;20019;-69
2022/07/19 07:05:24;;;;;;;2.28;0.93;;;22.60;51.30;;;;;;6173467;28;20019;-69
2022/07/19 07:08:25;;;;;;;1.67;1.10;;;22.60;51.30;;;;;;6181498;28;20031;-69
2022/07/19 07:11:25;;;;;;;1.10;0.90;;;22.60;51.30;;;;;;6197116;28;20030;-69
2022/07/19 07:14:26;;;;;;;2.13;1.30;;;22.60;51.40;;;;;;6180852;28;20031;-69
2022/07/19 07:17:27;;;;;;;1.63;1.10;;;22.60;51.30;;;;;;6172843;28;20116;-69
2022/07/19 07:20:28;;;;;;;1.50;1.00;;;22.60;51.40;;;;;;6196537;28;20033;-69
2022/07/19 07:23:28;;;;;;;1.67;1.20;;;22.60;51.40;;;;;;6189695;28;20025;-69
2022/07/19 07:26:29;;;;;;;1.58;1.17;;;22.60;51.50;;;;;;6195872;28;20105;-69
2022/07/19 07:29:30;;;;;;;1.75;1.10;;;22.60;51.50;;;;;;6196935;28;20556;-69
2022/07/19 07:32:30;;;;;;;2.03;1.13;;;22.60;51.50;;;;;;6196389;28;20060;-69
2022/07/19 07:35:31;;;;;;;1.30;1.13;;;22.60;51.50;;;;;;6173744;28;20038;-69
2022/07/19 07:38:32;;;;;;;1.55;1.20;;;22.60;51.50;;;;;;6177829;28;20018;-69
2022/07/19 07:41:32;;;;;;;1.73;1.10;;;22.60;51.50;;;;;;6196922;28;20027;-69
2022/07/19 07:44:33;;;;;;;1.45;1.20;;;22.60;51.60;;;;;;6183336;28;20422;-69
2022/07/19 07:47:34;;;;;;;1.95;1.20;;;22.60;51.40;;;;;;6161386;28;20385;-69
2022/07/19 07:50:35;;;;;;;1.38;1.10;;;22.60;51.50;;;;;;6192130;28;20050;-69
2022/07/19 07:53:36;;;;;;;2.60;1.10;;;22.60;51.60;;;;;;6195643;28;20036;-69
2022/07/19 07:56:36;;;;;;;0.98;0.88;;;22.60;51.50;;;;;;6196411;28;20162;-69
2022/07/19 07:59:37;;;;;;;1.42;1.10;;;22.60;51.40;;;;;;6196477;28;20109;-69
2022/07/19 08:02:45;;;;;;;2.15;1.00;;;22.60;51.40;;;;;;6196018;28;20038;-69
2022/07/19 08:05:48;;;;;;;1.20;1.10;;;22.60;51.30;;;;;;6176084;28;20118;-69
2022/07/19 08:08:48;;;;;;;1.80;1.00;;;22.60;51.40;;;;;;6175413;28;20018;-69
2022/07/19 08:11:49;;;;;;;1.38;1.15;;;22.60;51.40;;;;;;6196049;28;20078;-69
2022/07/19 08:14:50;;;;;;;1.58;1.00;;;22.60;51.40;;;;;;6168387;28;20512;-69
2022/07/19 08:17:50;;;;;;;1.40;1.00;;;22.60;51.40;;;;;;6195671;28;20023;-69
2022/07/19 08:20:51;;;;;;;1.33;1.00;;;22.60;51.40;;;;;;6195366;28;20022;-69
2022/07/19 08:23:53;;;;;;;1.10;1.00;;;22.60;51.50;;;;;;6195282;28;20022;-69
2022/07/19 08:26:55;;;;;;;1.65;1.05;;;22.60;51.50;;;;;;6193857;28;20038;-69
2022/07/19 08:29:56;;;;;;;1.40;1.00;;;22.60;51.60;;;;;;6195906;28;20030;-69
2022/07/19 08:32:56;;;;;;;1.65;1.08;;;22.60;51.70;;;;;;6195187;28;20044;-69
2022/07/19 08:35:57;;;;;;;1.48;1.08;;;22.60;51.70;;;;;;6177671;28;20070;-69
2022/07/19 08:38:58;;;;;;;1.33;1.00;;;22.60;51.70;;;;;;6172114;28;20470;-69
2022/07/19 08:41:58;;;;;;;1.17;1.00;;;22.60;51.70;;;;;;6194074;28;20033;-69
2022/07/19 08:45:05;;;;;;;1.55;1.00;;;22.60;51.70;;;;;;6187118;28;20023;-69
2022/07/19 08:48:06;;;;;;;3.58;1.00;;;22.60;51.70;;;;;;6173307;28;20383;-69
2022/07/19 08:51:08;;;;;;;1.05;0.95;;;22.60;51.70;;;;;;6192715;28;20030;-69
2022/07/19 08:54:09;;;;;;;1.20;1.10;;;22.60;52.10;;;;;;6173757;28;20028;-69
2022/07/19 09:00:31;;;;;;;1.25;1.02;;;22.60;51.70;;;;;;6199941;28;20042;-69
2022/07/19 09:03:31;;;;;;;1.13;1.00;;;22.60;51.70;;;;;;6200201;28;20022;-69
2022/07/19 09:06:46;;;;;;;1.55;1.08;;;22.60;51.70;;;;;;6181806;28;20026;-69
2022/07/19 09:09:47;;;;;;;1.58;1.00;;;22.60;51.60;;;;;;6179142;28;20109;-69
2022/07/19 09:13:10;;;;;;;1.55;1.00;;;22.60;51.60;;;;;;6199298;28;20034;-69
2022/07/19 09:16:11;;;;;;;1.40;1.23;;;22.60;51.50;;;;;;6185701;28;20114;-69
2022/07/19 09:19:12;;;;;;;1.52;1.10;;;22.60;51.50;;;;;;6175471;28;20015;-69
2022/07/19 09:22:13;;;;;;;1.23;1.10;;;22.60;51.60;;;;;;6196868;28;20087;-69
2022/07/19 09:25:30;;;;;;;1.42;0.95;;;22.60;51.60;;;;;;6199117;28;20023;-69
2022/07/19 09:28:35;;;;;;;1.10;0.88;;;22.60;51.60;;;;;;6199794;28;20026;-69
2022/07/19 09:31:36;;;;;;;1.10;0.95;;;22.60;51.70;;;;;;6199258;28;20084;-70
2022/07/19 09:34:41;;;;;;;1.90;1.20;;;22.60;51.70;;;;;;6197327;28;20457;-69
2022/07/19 09:37:41;;;;;;;1.45;1.20;;;22.60;51.70;;;;;;6176074;28;20390;-69
2022/07/19 09:40:42;;;;;;;1.30;1.05;;;22.60;51.70;;;;;;6181898;28;20022;-69
2022/07/19 09:44:00;;;;;;;0.88;0.70;;;22.60;51.70;;;;;;6199375;28;20032;-69
2022/07/19 09:47:01;;;;;;;1.50;0.90;;;22.60;51.70;;;;;;6182644;28;20110;-69
2022/07/19 09:50:05;;;;;;;1.50;1.00;;;22.60;51.70;;;;;;6174492;28;20043;-69
2022/07/19 09:53:06;;;;;;;1.80;0.93;;;22.60;51.70;;;;;;6198695;28;20030;-69
2022/07/19 09:56:07;;;;;;;1.10;1.00;;;22.60;51.70;;;;;;6181613;28;20065;-70
2022/07/19 09:59:08;;;;;;;2.05;1.40;;;22.60;51.80;;;;;;6187449;28;20038;-70
2022/07/19 10:02:09;;;;;;;1.60;1.10;;;22.60;51.90;;;;;;6178437;28;20026;-70
2022/07/19 10:05:11;;;;;;;1.25;1.15;;;22.60;51.90;;;;;;6186616;28;20057;-70
2022/07/19 10:08:11;;;;;;;1.35;1.00;;;22.60;51.90;;;;;;6175088;28;20055;-70
2022/07/19 10:11:13;;;;;;;1.20;1.00;;;22.60;51.90;;;;;;6180918;28;20030;-70
2022/07/19 10:14:14;;;;;;;1.10;1.00;;;22.60;51.90;;;;;;6198495;28;20485;-70
2022/07/19 10:17:33;;;;;;;1.25;1.00;;;22.60;52.60;;;;;;6195762;28;20036;-69
2022/07/19 10:20:35;;;;;;;1.50;1.10;;;22.60;52.00;;;;;;6188975;28;20035;-69
2022/07/19 10:23:36;;;;;;;1.25;1.05;;;22.60;52.00;;;;;;6197997;28;20505;-70
2022/07/19 10:26:41;;;;;;;1.55;1.05;;;22.60;52.00;;;;;;6190145;28;20114;-70
2022/07/19 10:29:42;;;;;;;1.20;1.00;;;22.50;51.90;;;;;;6172318;28;20027;-70
2022/07/19 10:32:46;;;;;;;1.77;1.38;;;22.60;52.00;;;;;;6185539;28;20477;-69
2022/07/19 10:35:46;;;;;;;0.77;0.68;;;22.60;52.00;;;;;;6170062;28;20030;-69
2022/07/19 10:39:21;;;;;;;1.30;1.10;;;22.60;52.00;;;;;;6156833;28;20411;-69
2022/07/19 10:42:23;;;;;;;2.03;1.20;;;22.60;51.90;;;;;;6195348;28;20031;-69
2022/07/19 10:45:23;;;;;;;1.58;1.10;;;22.60;51.90;;;;;;6195393;28;20050;-69
2022/07/19 10:48:47;;;;;;;1.50;1.20;;;22.70;52.10;;;;;;6196364;28;20041;-69
2022/07/19 10:51:47;;;;;;;1.08;0.85;;;22.70;52.10;;;;;;6195586;28;20041;-69
2022/07/19 10:55:17;;;;;;;1.08;0.98;;;22.80;52.20;;;;;;6189827;28;20034;-69
2022/07/19 10:58:17;;;;;;;1.15;1.00;;;22.80;52.20;;;;;;6196720;28;20057;-68
2022/07/19 11:01:20;;;;;;;1.40;1.27;;;22.80;52.10;;;;;;6217676;28;20029;-69
2022/07/19 11:04:28;;;;;;;1.98;1.60;;;22.80;52.20;;;;;;6182992;28;20031;-69
2022/07/19 11:07:29;;;;;;;1.70;1.30;;;22.80;52.40;;;;;;6196815;28;20033;-69
2022/07/19 11:10:30;;;;;;;2.53;1.50;;;22.80;52.30;;;;;;6195971;28;20061;-69
2022/07/19 11:13:31;;;;;;;1.20;1.00;;;22.80;52.30;;;;;;6196852;28;20037;-69
2022/07/19 11:16:31;;;;;;;1.48;0.90;;;22.70;52.20;;;;;;6196649;28;20398;-69
2022/07/19 11:19:32;;;;;;;1.25;1.00;;;22.80;52.30;;;;;;6172628;28;20425;-69
2022/07/19 11:22:45;;;;;;;1.33;1.20;;;22.70;52.30;;;;;;6180212;28;20040;-69
2022/07/19 11:25:49;;;;;;;4.15;1.13;;;22.70;52.20;;;;;;6190209;28;20026;-69
2022/07/19 11:28:50;;;;;;;2.13;1.33;;;22.70;52.20;;;;;;6196250;28;20030;-69
2022/07/19 11:31:51;;;;;;;0.82;0.82;;;22.70;52.20;;;;;;6192322;28;20030;-69
2022/07/19 11:35:00;;;;;;;1.45;1.00;;;22.70;52.20;;;;;;6172279;28;20023;-69
2022/07/19 11:38:00;;;;;;;1.50;1.10;;;22.70;52.20;;;;;;6181561;28;20026;-69
2022/07/19 11:41:01;;;;;;;1.65;1.20;;;22.70;52.20;;;;;;6196043;28;20108;-69
2022/07/19 11:44:07;;;;;;;2.30;1.10;;;22.70;53.00;;;;;;6179269;28;20030;-69
2022/07/19 11:47:07;;;;;;;1.20;1.08;;;22.70;52.30;;;;;;6173229;28;20058;-69
2022/07/19 11:50:10;;;;;;;1.60;1.10;;;22.70;52.30;;;;;;6195869;28;20469;-69
2022/07/19 11:53:18;;;;;;;1.50;1.00;;;22.70;52.30;;;;;;6194219;28;20030;-69
2022/07/19 11:56:21;;;;;;;1.23;1.02;;;22.70;52.30;;;;;;6178418;28;20069;-69
2022/07/19 11:59:22;;;;;;;1.10;0.98;;;22.70;52.30;;;;;;6195934;28;20519;-69
2022/07/19 12:02:22;;;;;;;1.17;0.90;;;22.70;52.30;;;;;;6195930;28;20023;-69
2022/07/19 12:05:24;;;;;;;1.40;1.05;;;22.70;52.30;;;;;;6196151;28;20022;-69
2022/07/19 12:08:34;;;;;;;1.60;1.10;;;22.70;52.30;;;;;;6182626;28;20116;-69
2022/07/19 12:11:46;;;;;;;1.10;0.90;;;22.70;52.30;;;;;;6196044;28;20022;-69
2022/07/19 12:14:47;;;;;;;1.75;1.02;;;22.70;52.30;;;;;;6174139;28;20039;-69
2022/07/19 12:17:57;;;;;;;1.20;1.00;;;22.70;52.30;;;;;;6186938;28;20053;-69
2022/07/19 12:21:25;;;;;;;1.20;1.05;;;22.70;52.30;;;;;;6196409;28;20101;-69
2022/07/19 12:24:28;;;;;;;0.98;0.93;;;22.70;52.30;;;;;;6197206;28;20054;-69
2022/07/19 12:27:30;;;;;;;1.05;0.88;;;22.70;52.40;;;;;;6200519;28;20415;-69
2022/07/19 12:30:31;;;;;;;1.20;1.10;;;22.70;52.30;;;;;;6200061;28;20061;-69
2022/07/19 12:33:32;;;;;;;1.13;1.02;;;22.70;52.30;;;;;;6194048;28;20023;-69
2022/07/19 12:36:34;;;;;;;3.22;1.00;;;22.60;52.30;;;;;;6176522;28;20042;-69
2022/07/19 12:39:35;;;;;;;1.58;1.20;;;22.70;52.40;;;;;;6189203;28;20030;-69
2022/07/19 12:42:47;;;;;;;2.78;1.23;;;22.70;52.40;;;;;;6200445;28;20450;-69
2022/07/19 12:45:47;;;;;;;1.10;1.00;;;22.70;52.40;;;;;;6177358;28;20382;-69
2022/07/19 12:48:48;;;;;;;1.30;1.00;;;22.70;52.40;;;;;;6182290;28;20065;-69
2022/07/19 12:51:49;;;;;;;1.80;1.27;;;22.70;52.40;;;;;;6199936;28;20030;-68
2022/07/19 12:54:50;;;;;;;1.63;1.15;;;22.70;52.50;;;;;;6196190;28;20053;-69
2022/07/19 12:57:52;;;;;;;1.60;1.10;;;22.70;52.40;;;;;;6200353;28;20030;-69
2022/07/19 13:00:53;;;;;;;1.10;1.00;;;22.70;52.40;;;;;;6199330;28;20018;-69
2022/07/19 13:03:54;;;;;;;0.90;0.80;;;22.70;52.50;;;;;;6191982;28;20030;-69
2022/07/19 13:06:54;;;;;;;1.38;1.05;;;22.70;52.50;;;;;;6188100;28;20049;-69
2022/07/19 13:09:55;;;;;;;1.27;1.00;;;22.70;52.50;;;;;;6186303;28;20030;-70
2022/07/19 13:12:56;;;;;;;1.13;1.02;;;22.70;52.50;;;;;;6174651;28;20019;-69
2022/07/19 13:15:56;;;;;;;1.23;1.00;;;22.70;52.50;;;;;;6184914;28;20128;-69
2022/07/19 13:18:57;;;;;;;1.35;1.10;;;22.70;52.40;;;;;;6198844;28;20026;-69
2022/07/19 13:21:58;;;;;;;1.45;1.08;;;22.70;52.50;;;;;;6198723;28;20034;-69
2022/07/19 13:24:58;;;;;;;1.10;1.00;;;22.60;52.40;;;;;;6197985;28;20037;-69
2022/07/19 13:27:59;;;;;;;1.30;1.05;;;22.70;52.50;;;;;;6191645;28;20026;-69
2022/07/19 13:31:01;;;;;;;1.38;1.15;;;22.70;52.60;;;;;;6173353;28;20493;-69
2022/07/19 13:34:02;;;;;;;1.20;1.05;;;22.60;52.40;;;;;;6176036;28;20102;-69
2022/07/19 13:37:03;;;;;;;1.10;0.90;;;22.70;52.50;;;;;;6198391;28;20377;-69
2022/07/19 13:40:05;;;;;;;1.52;1.08;;;22.70;52.50;;;;;;6188516;28;20034;-69
2022/07/19 13:43:05;;;;;;;1.10;0.93;;;22.70;52.50;;;;;;6174045;28;20413;-69
2022/07/19 13:46:06;;;;;;;1.25;1.00;;;22.70;52.50;;;;;;6191500;28;20030;-69
2022/07/19 13:49:07;;;;;;;1.10;0.90;;;22.70;52.50;;;;;;6197240;28;20042;-69
2022/07/19 13:52:08;;;;;;;1.17;0.90;;;22.70;52.50;;;;;;6173735;28;20058;-69
2022/07/19 13:55:09;;;;;;;1.13;1.00;;;22.70;52.40;;;;;;6195467;28;20039;-69
2022/07/19 13:58:10;;;;;;;1.00;0.90;;;22.70;52.50;;;;;;6174252;28;20027;-69
2022/07/19 14:01:11;;;;;;;1.13;1.02;;;22.70;52.60;;;;;;6190011;28;20421;-69
2022/07/19 14:04:13;;;;;;;1.25;1.00;;;22.70;52.50;;;;;;6182616;28;20085;-69
2022/07/19 14:07:13;;;;;;;0.93;0.85;;;22.70;52.40;;;;;;6161577;28;20038;-69
2022/07/19 14:10:14;;;;;;;1.08;0.95;;;22.70;52.40;;;;;;6190786;28;20097;-69
2022/07/19 14:13:15;;;;;;;4.20;0.93;;;22.70;52.50;;;;;;6157097;28;20038;-69
2022/07/19 14:16:16;;;;;;;5.43;1.20;;;22.70;52.50;;;;;;6188086;28;20042;-68
2022/07/19 14:19:17;;;;;;;2.08;1.10;;;22.80;52.80;;;;;;6197458;28;20485;-69
2022/07/19 14:22:18;;;;;;;2.13;1.00;;;22.80;52.70;;;;;;6174610;28;20027;-69
2022/07/19 14:25:19;;;;;;;2.83;1.30;;;22.70;52.80;;;;;;6178215;28;20023;-69
2022/07/19 14:28:19;;;;;;;2.50;1.08;;;22.80;53.30;;;;;;6197282;28;20019;-69
2022/07/19 14:31:20;;;;;;;4.60;1.30;;;22.80;53.00;;;;;;6183307;28;20058;-69
2022/07/19 14:34:21;;;;;;;2.05;1.17;;;22.70;53.20;;;;;;6172928;28;20026;-69
2022/07/19 14:37:22;;;;;;;7.13;1.10;;;22.80;53.40;;;;;;6193339;28;20089;-69
2022/07/19 14:40:22;;;;;;;2.55;1.30;;;22.80;53.20;;;;;;6192698;28;20027;-69
2022/07/19 14:43:23;;;;;;;5.40;1.27;;;22.80;53.30;;;;;;6172047;28;20035;-69
2022/07/19 14:46:24;;;;;;;1.38;1.15;;;22.80;53.20;;;;;;6183942;28;20477;-69
2022/07/19 14:49:24;;;;;;;1.27;0.80;;;22.80;53.20;;;;;;6196645;28;20404;-69
2022/07/19 14:52:25;;;;;;;5.20;1.10;;;22.80;53.10;;;;;;6177845;28;20023;-69
2022/07/19 14:55:27;;;;;;;2.67;1.25;;;22.80;53.10;;;;;;6196107;28;20061;-69
2022/07/19 14:58:28;;;;;;;2.03;0.90;;;22.80;53.10;;;;;;6196812;28;20027;-69
2022/07/19 15:01:28;;;;;;;1.13;1.02;;;22.80;53.10;;;;;;6196342;28;20076;-69
2022/07/19 15:04:29;;;;;;;1.10;0.90;;;22.70;53.00;;;;;;6196333;28;20125;-69
2022/07/19 15:07:30;;;;;;;2.58;1.20;;;22.80;53.00;;;;;;6178283;28;20027;-69
2022/07/19 15:10:30;;;;;;;1.85;1.23;;;22.80;53.00;;;;;;6173479;28;20034;-69
2022/07/19 15:13:31;;;;;;;1.30;0.85;;;22.80;53.00;;;;;;6196107;28;20385;-69
2022/07/19 15:16:32;;;;;;;1.10;0.90;;;22.80;52.90;;;;;;6187293;28;20026;-69
2022/07/19 15:19:32;;;;;;;1.92;1.10;;;22.80;53.10;;;;;;6172072;28;20030;-69
2022/07/19 15:22:34;;;;;;;1.08;0.85;;;22.80;53.20;;;;;;6187789;28;20046;-69
2022/07/19 15:25:35;;;;;;;1.30;0.95;;;22.80;53.20;;;;;;6193704;28;20397;-69
2022/07/19 15:28:37;;;;;;;1.23;0.85;;;22.80;53.20;;;;;;6195689;28;20030;-69
2022/07/19 15:31:38;;;;;;;1.65;1.10;;;22.70;53.10;;;;;;6184517;28;20481;-69
2022/07/19 15:34:39;;;;;;;1.60;0.95;;;22.80;53.00;;;;;;6195527;28;20038;-68
2022/07/19 15:37:39;;;;;;;1.30;0.93;;;22.80;53.20;;;;;;6180631;28;20062;-69
2022/07/19 15:40:40;;;;;;;4.45;1.17;;;22.80;53.30;;;;;;6172150;28;20023;-69
2022/07/19 15:43:43;;;;;;;4.65;1.15;;;22.80;53.50;;;;;;6193846;28;20030;-69
2022/07/19 15:46:43;;;;;;;2.00;1.35;;;22.80;53.50;;;;;;6181094;28;20025;-69
2022/07/19 15:49:44;;;;;;;1.20;1.10;;;22.80;53.40;;;;;;6171546;28;20054;-69